Highland Center, IA

12:40 PM CDT af May 27, 2015 (GMT -0500)
South | | Change Station
CLOSE
Current Station
Personal Weather Stations
Location: Ottumwa, IA
Elevation: 640 ft
Nearby Weather Stations

Elev 640 ft 41.01 °N, 92.42 °W | Updated 6 minutes ago

klor
klor
78.4 °f
Feels Like 80 °f
N
2.7
vint baytevdik vint from mayrev[mv]

haynt
High -- | Low -- °f
--% Chance of Precip.
Yesterday
High -- | Low -- °f
Precip. -- in
5:42 AM 8:31 PM
Waxing Gibbous, 69% visible
druk 30.05 in
zeevdikeyt 10.0 mayln
Clouds klor
hitsindeks 80 °f
toypunkt 61 °f
faykhtkeyt 56%
Rainfall 0.02 in
Snow Depth Not available.
UV 11 out of 12
Pollen 8.60 out of 12
Air Quality Not available.
Flu Activity Sporadic
METAR KOTM 271653Z AUTO 27005KT 10SM CLR 22/16 A3006 RMK AO2 SLP176 T02220161

More Conditions Fewer Conditions

druk 30.05 in
zeevdikeyt 10.0 mayln
Clouds klor
hitsindeks 80 °f
toypunkt 61 °f
faykhtkeyt 56%
Rainfall 0.02 in
Snow Depth Not available.
UV 11 out of 12
Pollen 8.60 out of 12
Air Quality Not available.
Flu Activity Sporadic
METAR KOTM 271653Z AUTO 27005KT 10SM CLR 22/16 A3006 RMK AO2 SLP176 T02220161

More Conditions Fewer Conditions

10-Day Weather Forecast

Almanac

Astronomy

May. 27, 2015 Rise Set
Actual Time
Civil Twilight
Nautical Twilight
Astronomical Twilight
Moon
Length Of Visible Light
Length of Day
Tomorrow will be .
, % of the Moon is Illuminated

Today's Extremes

State Highs State Lows

Community

WunderPhotos

Upload Photos

1,824,731 photos uploaded!

WunderBlogs® & News

Nearby

Air Quality

  Air Quality AQ Index Pollutant
Not available.

Snow Depth

Station Depth Elevation

Earthquake Activity

City Distance Mag. Time & Date
Minimum magnitude displayed is 2.5.

Coastal Water Temperatures

plats temperatur

Stations

Nearby Weather Stations

Station Location Temp vintkelt toypunkt faykhtkeyt vint Precip. Elev dertsaytikt Type